createdAt,value
2023-05-19T00:00:19.662Z,63.92
2023-05-19T00:02:52.490Z,64.14
2023-05-19T00:05:25.240Z,64.57
2023-05-19T00:08:03.733Z,64.76
2023-05-19T00:10:36.593Z,65.10
2023-05-19T00:13:09.485Z,65.11
2023-05-19T00:15:42.141Z,65.34
2023-05-19T00:18:16.539Z,65.09
2023-05-19T00:20:52.399Z,64.81
2023-05-19T00:23:25.008Z,64.92
2023-05-19T00:25:57.578Z,65.35
2023-05-19T00:28:30.209Z,65.33
2023-05-19T00:31:06.419Z,65.30
2023-05-19T00:33:38.961Z,65.58
2023-05-19T00:36:11.606Z,65.88
2023-05-19T00:38:44.717Z,65.88
2023-05-19T00:41:17.544Z,65.80
2023-05-19T00:43:51.256Z,67.03
2023-05-19T00:46:23.900Z,66.68
2023-05-19T00:48:56.530Z,66.83
2023-05-19T00:51:32.133Z,66.79
2023-05-19T00:54:05.210Z,66.80
2023-05-19T00:56:37.898Z,67.06
2023-05-19T00:59:10.572Z,67.70
2023-05-19T01:01:43.240Z,67.73
2023-05-19T01:04:18.819Z,68.00
2023-05-19T01:06:55.364Z,68.89
2023-05-19T01:09:28.163Z,69.04
2023-05-19T01:12:01.570Z,70.09
2023-05-19T01:14:34.126Z,70.21
2023-05-19T01:17:24.268Z,71.95
2023-05-19T01:20:05.005Z,71.75
2023-05-19T01:22:57.146Z,72.10
2023-05-19T01:25:47.955Z,72.42
2023-05-19T01:28:36.929Z,73.18
2023-05-19T01:31:11.754Z,74.07
2023-05-19T01:33:45.362Z,74.14
2023-05-19T01:36:20.396Z,74.70
2023-05-19T01:38:56.255Z,74.32
2023-05-19T01:41:30.741Z,74.71
2023-05-19T01:44:03.475Z,75.26
2023-05-19T01:46:37.599Z,74.79
2023-05-19T01:49:11.092Z,74.80
2023-05-19T01:51:43.782Z,75.76
2023-05-19T01:54:16.226Z,75.20
2023-05-19T01:57:09.934Z,75.62
2023-05-19T02:00:08.351Z,75.54
2023-05-19T02:03:25.144Z,75.38
2023-05-19T02:06:32.789Z,75.83
2023-05-19T02:09:26.897Z,76.02
2023-05-19T02:12:06.287Z,76.42
2023-05-19T02:14:45.511Z,76.87
2023-05-19T02:17:19.910Z,76.94
2023-05-19T02:19:52.438Z,76.30
2023-05-19T02:22:25.339Z,76.66
2023-05-19T02:24:57.924Z,76.96
2023-05-19T02:27:30.918Z,77.16
2023-05-19T02:30:08.229Z,77.12
2023-05-19T02:32:40.800Z,77.40
2023-05-19T02:35:14.172Z,77.89
2023-05-19T02:37:46.690Z,78.51
2023-05-19T02:40:22.372Z,78.50
2023-05-19T02:42:55.000Z,78.53
2023-05-19T02:45:28.630Z,78.58
2023-05-19T02:48:01.379Z,78.71
2023-05-19T02:50:34.083Z,78.98
2023-05-19T02:53:06.672Z,78.76
2023-05-19T02:55:39.165Z,79.51
2023-05-19T02:58:11.638Z,79.16
2023-05-19T03:00:45.150Z,79.45
2023-05-19T03:03:18.139Z,79.37
2023-05-19T03:05:50.775Z,79.65
2023-05-19T03:08:23.369Z,79.71
2023-05-19T03:10:55.936Z,79.76
2023-05-19T03:13:28.703Z,79.86
2023-05-19T03:16:01.991Z,79.68
2023-05-19T03:18:34.851Z,80.28
2023-05-19T03:21:07.681Z,80.73
2023-05-19T03:23:40.250Z,80.89
2023-05-19T03:26:13.022Z,80.56
2023-05-19T03:28:45.545Z,81.32
2023-05-19T03:31:18.121Z,81.01
2023-05-19T03:33:50.732Z,81.53
2023-05-19T03:36:23.867Z,81.92
2023-05-19T03:38:56.327Z,82.08
2023-05-19T03:41:28.786Z,82.17
2023-05-19T03:44:01.582Z,82.52
2023-05-19T03:46:34.066Z,82.61
2023-05-19T03:49:06.623Z,82.13
2023-05-19T03:51:39.366Z,81.71
2023-05-19T03:54:11.898Z,83.32
2023-05-19T03:56:44.505Z,83.11
2023-05-19T03:59:16.969Z,83.02
2023-05-19T04:01:49.767Z,83.25
2023-05-19T04:04:22.708Z,83.00
2023-05-19T04:06:55.298Z,83.74
2023-05-19T04:09:27.810Z,83.80
2023-05-19T04:12:00.323Z,83.72
2023-05-19T04:14:32.839Z,83.54
2023-05-19T04:17:05.572Z,83.78
2023-05-19T04:19:38.107Z,83.74
2023-05-19T04:22:10.556Z,83.09
2023-05-19T04:24:43.084Z,83.41
2023-05-19T04:27:16.292Z,83.32
2023-05-19T04:29:49.677Z,83.66
2023-05-19T04:32:22.613Z,83.11
2023-05-19T04:34:55.117Z,81.88
2023-05-19T04:37:27.769Z,81.04
2023-05-19T04:40:00.240Z,80.89
2023-05-19T04:42:32.966Z,80.67
2023-05-19T04:45:08.721Z,80.89
2023-05-19T04:47:42.001Z,80.47
2023-05-19T04:50:16.481Z,81.74
2023-05-19T04:52:49.028Z,81.13
2023-05-19T04:55:21.948Z,80.51
2023-05-19T04:57:54.399Z,80.78
2023-05-19T05:00:27.092Z,81.69
2023-05-19T05:02:59.691Z,80.68
2023-05-19T05:05:32.493Z,81.20
2023-05-19T05:08:05.085Z,80.60
2023-05-19T05:10:37.628Z,79.79
2023-05-19T05:13:11.792Z,79.81
2023-05-19T05:15:44.830Z,79.37
2023-05-19T05:18:17.851Z,79.03
2023-05-19T05:20:50.810Z,78.70
2023-05-19T05:23:23.525Z,78.74
2023-05-19T05:25:56.269Z,78.29
2023-05-19T05:28:28.797Z,78.38
2023-05-19T05:31:01.289Z,78.06
2023-05-19T05:33:33.825Z,77.34
2023-05-19T05:36:06.827Z,77.19
2023-05-19T05:38:39.378Z,76.51
2023-05-19T05:41:11.915Z,76.28
2023-05-19T05:43:44.357Z,76.24
2023-05-19T05:46:16.839Z,75.88
2023-05-19T05:48:49.707Z,75.83
2023-05-19T05:51:23.130Z,75.56
2023-05-19T05:53:56.183Z,74.97
2023-05-19T05:56:28.970Z,74.36
2023-05-19T05:59:02.012Z,74.56
2023-05-19T06:01:35.979Z,74.22
2023-05-19T06:04:08.474Z,73.56
2023-05-19T06:06:41.110Z,73.37
2023-05-19T06:09:13.605Z,73.16
2023-05-19T06:11:46.160Z,72.95
2023-05-19T06:14:18.781Z,71.73
2023-05-19T06:16:51.348Z,71.05
2023-05-19T06:19:25.450Z,70.47
2023-05-19T06:21:58.328Z,69.97
2023-05-19T06:24:31.010Z,69.47
2023-05-19T06:27:03.869Z,69.65
2023-05-19T06:29:36.535Z,69.74
2023-05-19T06:32:08.981Z,68.92
2023-05-19T06:34:41.502Z,68.80
2023-05-19T06:37:16.956Z,68.56
2023-05-19T06:39:53.718Z,68.56
2023-05-19T06:42:26.379Z,67.65
2023-05-19T06:44:58.853Z,67.27
2023-05-19T06:47:31.331Z,67.35
2023-05-19T06:50:04.179Z,66.42
2023-05-19T06:52:38.074Z,66.70
2023-05-19T06:55:10.575Z,66.61
2023-05-19T06:57:43.397Z,65.99
2023-05-19T07:00:18.289Z,65.63
2023-05-19T07:02:52.629Z,65.13
2023-05-19T07:05:25.168Z,64.81
2023-05-19T07:07:57.625Z,64.54
2023-05-19T07:10:30.206Z,63.98
2023-05-19T07:13:02.731Z,63.89
2023-05-19T07:15:35.290Z,63.00
2023-05-19T07:18:07.796Z,61.79
2023-05-19T07:20:40.624Z,62.11
2023-05-19T07:23:13.262Z,62.15
2023-05-19T07:25:45.850Z,61.64
2023-05-19T07:28:18.342Z,61.31
2023-05-19T07:30:50.822Z,60.82
2023-05-19T07:33:23.485Z,60.75
2023-05-19T07:35:56.420Z,60.19
2023-05-19T07:38:31.363Z,60.45
2023-05-19T07:41:04.350Z,59.73
2023-05-19T07:43:36.793Z,59.16
2023-05-19T07:46:09.295Z,59.28
2023-05-19T07:48:41.822Z,58.74
2023-05-19T07:51:14.530Z,58.30
2023-05-19T07:53:47.193Z,57.46
2023-05-19T07:56:19.722Z,57.33
2023-05-19T07:58:52.205Z,56.49
2023-05-19T08:01:24.679Z,57.08
2023-05-19T08:03:57.861Z,56.01
2023-05-19T08:06:31.821Z,55.70
2023-05-19T08:09:05.470Z,54.71
2023-05-19T08:11:37.927Z,54.96
2023-05-19T08:14:10.870Z,53.64
2023-05-19T08:16:43.853Z,53.46
2023-05-19T08:19:16.427Z,52.95
2023-05-19T08:21:49.649Z,52.37
2023-05-19T08:24:22.187Z,52.11
2023-05-19T08:26:54.669Z,51.73
2023-05-19T08:29:27.186Z,50.46
2023-05-19T08:32:00.301Z,49.53
2023-05-19T08:34:32.881Z,48.43
2023-05-19T08:37:05.411Z,47.59
2023-05-19T08:39:37.939Z,47.28
2023-05-19T08:42:18.554Z,47.09
2023-05-19T08:44:51.444Z,46.54
2023-05-19T08:47:24.274Z,43.99
2023-05-19T08:50:05.248Z,42.80
2023-05-19T08:52:58.319Z,42.45
2023-05-19T08:55:39.647Z,42.84
2023-05-19T08:58:12.965Z,43.32
2023-05-19T09:00:46.575Z,42.77
2023-05-19T09:03:24.051Z,42.59
2023-05-19T09:05:56.882Z,41.38
2023-05-19T09:08:29.523Z,41.18
2023-05-19T09:11:02.124Z,40.45
2023-05-19T09:13:34.866Z,41.35
2023-05-19T09:16:08.186Z,39.48
2023-05-19T09:18:43.259Z,39.45
2023-05-19T09:21:16.369Z,40.80
2023-05-19T09:23:49.655Z,39.48
2023-05-19T09:26:23.416Z,38.81
2023-05-19T09:28:58.239Z,38.03
2023-05-19T09:31:33.153Z,38.56
2023-05-19T09:34:12.734Z,39.39
2023-05-19T09:36:49.459Z,38.29
2023-05-19T09:39:25.904Z,38.92
2023-05-19T09:41:58.928Z,36.23
2023-05-19T09:44:32.578Z,36.75
2023-05-19T09:47:05.161Z,36.12
2023-05-19T09:49:38.567Z,37.68
2023-05-19T09:52:16.195Z,37.83
2023-05-19T09:54:49.101Z,37.84
2023-05-19T09:57:28.278Z,37.64
2023-05-19T10:00:01.109Z,37.85
2023-05-19T10:02:34.017Z,38.75
2023-05-19T10:05:07.461Z,38.99
2023-05-19T10:07:40.919Z,37.47
2023-05-19T10:10:14.098Z,37.25
2023-05-19T10:12:49.911Z,36.18
2023-05-19T10:15:30.474Z,34.71
2023-05-19T10:18:03.775Z,34.36
2023-05-19T10:20:37.254Z,34.54
2023-05-19T10:23:09.925Z,34.76
2023-05-19T10:25:43.175Z,35.64
2023-05-19T10:28:20.351Z,33.93
2023-05-19T10:30:56.329Z,34.44
2023-05-19T10:34:06.620Z,35.55
2023-05-19T10:36:49.763Z,35.52
2023-05-19T10:39:28.115Z,36.41
2023-05-19T10:42:16.906Z,36.15
2023-05-19T10:45:16.268Z,36.28
2023-05-19T10:47:50.838Z,36.24
2023-05-19T10:50:23.463Z,36.85
2023-05-19T10:52:56.698Z,36.37
2023-05-19T10:55:46.784Z,35.53
2023-05-19T10:58:44.048Z,35.37
2023-05-19T11:01:18.393Z,34.54
2023-05-19T11:03:54.742Z,36.41
2023-05-19T11:06:28.527Z,36.19
2023-05-19T11:09:12.954Z,35.84
2023-05-19T11:11:50.502Z,32.67
2023-05-19T11:14:26.819Z,32.28
2023-05-19T11:17:02.980Z,32.95
2023-05-19T11:19:36.107Z,33.28
2023-05-19T11:22:13.695Z,32.89
2023-05-19T11:24:50.143Z,32.64
2023-05-19T11:27:31.963Z,32.06
2023-05-19T11:30:08.913Z,30.37
2023-05-19T11:32:44.385Z,31.07
2023-05-19T11:35:19.057Z,31.18
2023-05-19T11:37:54.713Z,31.68
2023-05-19T11:40:27.281Z,31.68
2023-05-19T11:43:01.686Z,30.74
2023-05-19T11:45:35.012Z,31.81
2023-05-19T11:48:15.516Z,30.75
2023-05-19T11:50:48.345Z,32.32
2023-05-19T11:53:21.258Z,29.96
2023-05-19T11:55:54.924Z,30.61
2023-05-19T11:58:27.892Z,30.75
2023-05-19T12:01:04.072Z,31.13
2023-05-19T12:03:36.824Z,31.62
2023-05-19T12:06:10.266Z,31.87
2023-05-19T12:08:42.963Z,31.39
2023-05-19T12:11:16.553Z,31.75
2023-05-19T12:13:54.474Z,30.43
2023-05-19T12:16:35.758Z,30.69
2023-05-19T12:19:08.584Z,31.16
2023-05-19T12:21:41.326Z,31.31
2023-05-19T12:24:14.049Z,31.59
2023-05-19T12:26:47.124Z,32.14
2023-05-19T12:29:19.620Z,32.36
2023-05-19T12:31:52.147Z,31.28
2023-05-19T12:34:27.484Z,31.35
2023-05-19T12:37:02.456Z,31.59
2023-05-19T12:39:35.917Z,31.86
2023-05-19T12:42:09.902Z,32.60
2023-05-19T12:44:48.181Z,32.42
2023-05-19T12:47:21.028Z,31.21
2023-05-19T12:50:00.330Z,30.52
2023-05-19T12:52:37.659Z,29.27
2023-05-19T12:55:14.162Z,29.77
2023-05-19T12:57:52.743Z,30.02
2023-05-19T13:00:28.431Z,30.68
2023-05-19T13:03:05.132Z,29.46
2023-05-19T13:05:40.029Z,29.82
2023-05-19T13:08:14.504Z,29.83
2023-05-19T13:10:47.587Z,29.79
2023-05-19T13:13:20.170Z,30.51
2023-05-19T13:15:52.849Z,30.25
2023-05-19T13:18:27.429Z,29.92
2023-05-19T13:20:59.917Z,29.17
2023-05-19T13:23:32.404Z,29.92
2023-05-19T13:26:05.422Z,30.09
2023-05-19T13:28:37.916Z,29.60
2023-05-19T13:31:10.608Z,30.11
2023-05-19T13:33:43.108Z,30.62
2023-05-19T13:36:15.653Z,29.52
2023-05-19T13:38:48.164Z,29.51
2023-05-19T13:41:26.123Z,29.46
2023-05-19T13:44:01.718Z,28.63
2023-05-19T13:46:44.610Z,28.71
2023-05-19T13:49:18.922Z,28.44
2023-05-19T13:51:51.442Z,28.21
2023-05-19T13:54:24.186Z,26.66
2023-05-19T13:56:56.645Z,27.97
2023-05-19T13:59:29.646Z,27.83
2023-05-19T14:02:06.561Z,28.08
2023-05-19T14:04:39.829Z,28.92
2023-05-19T14:07:12.336Z,27.92
2023-05-19T14:09:46.064Z,29.14
2023-05-19T14:12:19.165Z,28.24
2023-05-19T14:14:51.895Z,28.06
2023-05-19T14:17:28.462Z,28.16
2023-05-19T14:20:01.484Z,27.70
2023-05-19T14:22:34.047Z,27.92
2023-05-19T14:25:07.096Z,27.98
2023-05-19T14:27:42.509Z,28.53
2023-05-19T14:30:14.949Z,29.21
2023-05-19T14:32:47.715Z,29.13
2023-05-19T14:35:20.329Z,27.71
2023-05-19T14:37:53.148Z,28.12
2023-05-19T14:40:25.698Z,28.21
2023-05-19T14:42:58.214Z,28.28
2023-05-19T14:45:30.913Z,28.57
2023-05-19T14:48:03.530Z,27.71
2023-05-19T14:50:36.017Z,28.09
2023-05-19T14:53:08.506Z,29.07
2023-05-19T14:55:41.040Z,27.29
2023-05-19T14:58:27.601Z,27.52
2023-05-19T15:01:01.122Z,28.52
2023-05-19T15:03:33.951Z,28.58
2023-05-19T15:06:10.842Z,28.08
2023-05-19T15:08:43.426Z,27.78
2023-05-19T15:11:15.864Z,28.10
2023-05-19T15:13:48.436Z,27.72
2023-05-19T15:16:20.984Z,27.02
2023-05-19T15:18:53.525Z,26.79
2023-05-19T15:21:26.243Z,27.39
2023-05-19T15:23:58.718Z,27.57
2023-05-19T15:26:31.633Z,27.11
2023-05-19T15:29:04.093Z,26.38
2023-05-19T15:31:38.121Z,26.37
2023-05-19T15:34:10.983Z,26.41
2023-05-19T15:36:43.437Z,26.31
2023-05-19T15:39:15.969Z,26.84
2023-05-19T15:41:50.724Z,25.88
2023-05-19T15:44:23.233Z,25.90
2023-05-19T15:46:55.909Z,26.03
2023-05-19T15:49:28.434Z,26.20
2023-05-19T15:52:00.876Z,25.77
2023-05-19T15:54:33.491Z,26.26
2023-05-19T15:57:05.982Z,26.62
2023-05-19T15:59:38.423Z,25.72
2023-05-19T16:02:11.358Z,25.20
2023-05-19T16:04:43.840Z,24.99
2023-05-19T16:07:16.921Z,23.78
2023-05-19T16:09:50.031Z,23.99
2023-05-19T16:12:23.689Z,24.28
2023-05-19T16:15:02.574Z,24.21
2023-05-19T16:17:35.299Z,24.47
2023-05-19T16:20:08.388Z,24.79
2023-05-19T16:22:41.065Z,24.61
2023-05-19T16:25:13.670Z,24.11
2023-05-19T16:27:46.167Z,24.26
2023-05-19T16:30:18.794Z,23.89
2023-05-19T16:32:53.034Z,24.63
2023-05-19T16:35:27.818Z,24.99
2023-05-19T16:38:00.453Z,23.86
2023-05-19T16:40:33.024Z,23.90
2023-05-19T16:43:05.651Z,25.25
2023-05-19T16:45:38.223Z,23.84
2023-05-19T16:48:11.238Z,23.61
2023-05-19T16:50:43.804Z,23.43
2023-05-19T16:53:16.427Z,23.17
2023-05-19T16:55:48.875Z,22.70
2023-05-19T16:58:21.709Z,23.25
2023-05-19T17:00:54.487Z,22.57
2023-05-19T17:03:27.229Z,21.86
2023-05-19T17:06:00.878Z,22.48
2023-05-19T17:08:33.774Z,23.30
2023-05-19T17:11:06.568Z,23.12
2023-05-19T17:13:39.572Z,22.63
2023-05-19T17:16:12.033Z,23.28
2023-05-19T17:18:44.524Z,23.56
2023-05-19T17:21:17.696Z,23.29
2023-05-19T17:23:50.255Z,23.32
2023-05-19T17:26:22.675Z,23.34
2023-05-19T17:28:55.468Z,23.54
2023-05-19T17:31:28.330Z,24.97
2023-05-19T17:34:00.823Z,24.71
2023-05-19T17:36:33.283Z,24.61
2023-05-19T17:39:05.811Z,24.83
2023-05-19T17:41:38.356Z,24.48
2023-05-19T17:44:11.121Z,24.37
2023-05-19T17:46:43.618Z,24.23
2023-05-19T17:49:16.179Z,24.10
2023-05-19T17:51:48.951Z,24.45
2023-05-19T17:54:22.046Z,24.52
2023-05-19T17:56:57.766Z,24.54
2023-05-19T17:59:30.547Z,24.75
2023-05-19T18:02:03.810Z,24.64
2023-05-19T18:04:36.679Z,25.08
2023-05-19T18:07:09.847Z,25.25
2023-05-19T18:09:47.782Z,26.39
2023-05-19T18:12:21.230Z,27.36
2023-05-19T18:14:53.605Z,27.11
2023-05-19T18:17:26.144Z,27.46
2023-05-19T18:19:58.702Z,27.73
2023-05-19T18:22:31.397Z,27.73
2023-05-19T18:25:04.169Z,28.31
2023-05-19T18:27:36.586Z,29.85
2023-05-19T18:30:09.448Z,30.11
2023-05-19T18:32:42.326Z,30.25
2023-05-19T18:35:14.868Z,30.32
2023-05-19T18:37:47.440Z,30.57
2023-05-19T18:40:19.896Z,31.24
2023-05-19T18:42:52.374Z,31.55
2023-05-19T18:45:24.808Z,31.78
2023-05-19T18:47:57.292Z,32.17
2023-05-19T18:50:30.118Z,33.02
2023-05-19T18:53:02.681Z,33.40
2023-05-19T18:55:37.080Z,33.59
2023-05-19T18:58:10.890Z,34.44
2023-05-19T19:00:43.268Z,34.53
2023-05-19T19:03:15.861Z,34.89
2023-05-19T19:05:56.724Z,35.34
2023-05-19T19:08:29.198Z,36.18
2023-05-19T19:11:01.757Z,36.66
2023-05-19T19:13:34.252Z,36.09
2023-05-19T19:16:07.283Z,36.66
2023-05-19T19:18:39.906Z,37.22
2023-05-19T19:21:12.466Z,37.33
2023-05-19T19:23:44.915Z,37.34
2023-05-19T19:26:17.401Z,37.70
2023-05-19T19:28:49.930Z,38.57
2023-05-19T19:31:22.905Z,38.36
2023-05-19T19:33:58.952Z,38.51
2023-05-19T19:36:31.910Z,38.97
2023-05-19T19:39:04.402Z,39.34
2023-05-19T19:41:36.848Z,39.80
2023-05-19T19:44:09.477Z,39.67
2023-05-19T19:46:43.220Z,40.90
2023-05-19T19:49:15.778Z,40.62
2023-05-19T19:51:48.316Z,40.64
2023-05-19T19:54:20.960Z,41.16
2023-05-19T19:56:53.460Z,41.36
2023-05-19T19:59:26.903Z,41.42
2023-05-19T20:02:01.432Z,41.42
2023-05-19T20:04:33.951Z,42.02
2023-05-19T20:07:06.521Z,42.08
2023-05-19T20:09:39.301Z,41.73
2023-05-19T20:12:11.849Z,42.10
2023-05-19T20:14:44.434Z,42.63
2023-05-19T20:17:17.806Z,42.99
2023-05-19T20:19:50.304Z,42.78
2023-05-19T20:22:22.753Z,43.41
2023-05-19T20:24:55.302Z,43.29
2023-05-19T20:27:27.743Z,44.00
2023-05-19T20:30:00.236Z,44.12
2023-05-19T20:32:32.738Z,44.23
2023-05-19T20:35:05.822Z,44.70
2023-05-19T20:37:38.498Z,44.72
2023-05-19T20:40:11.478Z,45.15
2023-05-19T20:42:44.534Z,45.29
2023-05-19T20:45:20.382Z,45.47
2023-05-19T20:47:53.538Z,45.51
2023-05-19T20:50:26.216Z,45.96
2023-05-19T20:52:58.678Z,45.92
2023-05-19T20:55:31.269Z,46.66
2023-05-19T20:58:03.919Z,46.70
2023-05-19T21:00:36.595Z,46.92
2023-05-19T21:03:09.267Z,47.08
2023-05-19T21:05:41.712Z,46.75
2023-05-19T21:08:14.197Z,47.47
2023-05-19T21:10:46.728Z,47.38
2023-05-19T21:13:19.296Z,46.98
2023-05-19T21:15:51.829Z,47.21
2023-05-19T21:18:24.274Z,47.45
2023-05-19T21:20:56.706Z,47.59
2023-05-19T21:23:29.244Z,47.87
2023-05-19T21:26:01.968Z,47.66
2023-05-19T21:28:34.414Z,48.18
2023-05-19T21:31:06.878Z,48.42
2023-05-19T21:33:39.342Z,48.29
2023-05-19T21:36:11.915Z,48.54
2023-05-19T21:38:44.342Z,48.52
2023-05-19T21:41:16.744Z,48.56
2023-05-19T21:43:49.303Z,48.18
2023-05-19T21:46:21.923Z,48.59
2023-05-19T21:48:54.419Z,48.30
2023-05-19T21:51:26.839Z,48.41
2023-05-19T21:53:59.427Z,48.85
2023-05-19T21:56:31.921Z,48.80
2023-05-19T21:59:07.694Z,49.01
2023-05-19T22:01:40.250Z,48.67
2023-05-19T22:04:14.294Z,49.08
2023-05-19T22:06:47.167Z,48.89
2023-05-19T22:09:19.647Z,49.10
2023-05-19T22:11:52.209Z,49.52
2023-05-19T22:14:24.730Z,49.51
2023-05-19T22:16:57.278Z,48.88
2023-05-19T22:19:29.893Z,49.56
2023-05-19T22:22:13.228Z,49.48
2023-05-19T22:24:46.919Z,50.35
2023-05-19T22:27:19.414Z,49.93
2023-05-19T22:29:51.908Z,49.69
2023-05-19T22:32:24.409Z,50.14
2023-05-19T22:34:57.056Z,50.53
2023-05-19T22:37:29.624Z,50.27
2023-05-19T22:40:02.096Z,50.40
2023-05-19T22:42:34.491Z,50.34
2023-05-19T22:45:07.376Z,50.61
2023-05-19T22:47:39.872Z,51.18
2023-05-19T22:50:12.447Z,50.51
2023-05-19T22:52:44.874Z,51.02
2023-05-19T22:55:17.392Z,51.00
2023-05-19T22:57:50.109Z,50.49
2023-05-19T23:00:22.634Z,50.85
2023-05-19T23:02:55.244Z,50.89
2023-05-19T23:05:27.735Z,51.00
2023-05-19T23:08:00.285Z,50.93
2023-05-19T23:10:37.068Z,51.18
2023-05-19T23:13:10.195Z,50.84
2023-05-19T23:15:42.717Z,51.32
2023-05-19T23:18:15.328Z,51.49
2023-05-19T23:20:47.870Z,52.14
2023-05-19T23:23:20.450Z,52.21
2023-05-19T23:25:52.920Z,53.02
2023-05-19T23:28:25.333Z,53.37
2023-05-19T23:30:57.800Z,53.14
2023-05-19T23:33:30.536Z,53.85
2023-05-19T23:36:07.806Z,53.62
2023-05-19T23:38:40.296Z,54.12
2023-05-19T23:41:12.776Z,54.43
2023-05-19T23:43:45.188Z,54.74
2023-05-19T23:46:17.774Z,55.03
2023-05-19T23:48:50.479Z,55.64
2023-05-19T23:51:22.899Z,56.06
2023-05-19T23:53:55.372Z,56.25
2023-05-19T23:56:27.834Z,56.05
2023-05-19T23:59:00.683Z,56.76
